Time;durP1;ratioP1;P1;durP2;ratioP2;P2;SDS_P1;SDS_P2;PMS_P1;PMS_P2;Temp;Humidity;BMP_temperature;BMP_pressure;BME280_temperature;BME280_humidity;BME280_pressure;Samples;Min_cycle;Max_cycle;Signal;HPM_P1;HPM_P2
2021/08/05 00:00:46;;;;;;;15.70;13.93;;;;;;;;;;5011723;28;20509;-46
2021/08/05 00:03:12;;;;;;;18.63;16.47;;;;;;;;;;5011763;28;20521;-46
2021/08/05 00:05:38;;;;;;;18.90;16.00;;;;;;;;;;5011631;28;20382;-46
2021/08/05 00:08:04;;;;;;;20.60;16.83;;;;;;;;;;5011285;28;20402;-46
2021/08/05 00:10:30;;;;;;;19.23;17.03;;;;;;;;;;5011467;28;20400;-46
2021/08/05 00:12:56;;;;;;;20.80;17.60;;;;;;;;;;5011749;28;20828;-46
2021/08/05 00:15:23;;;;;;;18.73;16.83;;;;;;;;;;5011501;28;20370;-46
2021/08/05 00:17:48;;;;;;;23.33;17.67;;;;;;;;;;5011480;28;20522;-46
2021/08/05 00:20:15;;;;;;;21.93;18.63;;;;;;;;;;5011287;28;20413;-46
2021/08/05 00:22:41;;;;;;;22.93;18.63;;;;;;;;;;5011512;28;20377;-46
2021/08/05 00:25:07;;;;;;;26.40;18.50;;;;;;;;;;5011502;28;20403;-46
2021/08/05 00:27:33;;;;;;;105.30;36.67;;;;;;;;;;5011328;28;20427;-46
2021/08/05 00:29:59;;;;;;;21.47;19.27;;;;;;;;;;5011244;28;20489;-46
2021/08/05 00:32:25;;;;;;;28.00;19.97;;;;;;;;;;5011119;28;20476;-46
2021/08/05 00:34:51;;;;;;;20.43;17.77;;;;;;;;;;5011663;28;20377;-47
2021/08/05 00:37:17;;;;;;;18.47;16.33;;;;;;;;;;5011729;28;20442;-46
2021/08/05 00:39:43;;;;;;;18.67;16.23;;;;;;;;;;5011162;28;20392;-47
2021/08/05 00:42:09;;;;;;;18.60;16.53;;;;;;;;;;5011335;28;20393;-47
2021/08/05 00:44:36;;;;;;;20.17;16.33;;;;;;;;;;5011331;28;20384;-47
2021/08/05 00:47:02;;;;;;;24.30;17.13;;;;;;;;;;5011328;28;20406;-46
2021/08/05 00:49:28;;;;;;;19.80;17.27;;;;;;;;;;5011245;28;20386;-46
2021/08/05 00:51:54;;;;;;;19.10;16.40;;;;;;;;;;5010861;28;20828;-46
2021/08/05 00:54:20;;;;;;;20.60;17.10;;;;;;;;;;5011245;28;20759;-46
2021/08/05 00:56:46;;;;;;;19.00;16.93;;;;;;;;;;5011023;28;20398;-46
2021/08/05 00:59:12;;;;;;;18.67;16.67;;;;;;;;;;5010937;28;20421;-46
2021/08/05 01:01:41;;;;;;;23.50;17.57;;;;;;;;;;5010322;28;20490;-47
2021/08/05 01:04:08;;;;;;;24.40;16.83;;;;;;;;;;5010535;28;20475;-46
2021/08/05 01:06:43;;;;;;;20.43;18.10;;;;;;;;;;5010375;28;20460;-46
2021/08/05 01:09:28;;;;;;;26.30;18.60;;;;;;;;;;5010863;28;20389;-48
2021/08/05 01:12:02;;;;;;;21.70;18.07;;;;;;;;;;5010600;28;20807;-47
2021/08/05 01:14:29;;;;;;;20.87;17.70;;;;;;;;;;5010858;28;20521;-48
2021/08/05 01:16:56;;;;;;;18.90;16.77;;;;;;;;;;5010841;28;20422;-48
2021/08/05 01:19:37;;;;;;;21.53;19.23;;;;;;;;;;5012414;28;20387;-46
2021/08/05 01:22:19;;;;;;;22.17;19.07;;;;;;;;;;5014832;28;20415;-46
2021/08/05 01:25:02;;;;;;;24.43;18.80;;;;;;;;;;5014823;28;20950;-46
2021/08/05 01:27:29;;;;;;;24.73;18.60;;;;;;;;;;5014671;28;20419;-47
2021/08/05 01:29:56;;;;;;;20.90;17.47;;;;;;;;;;5014594;28;20429;-46
2021/08/05 01:32:22;;;;;;;18.70;16.80;;;;;;;;;;5014589;28;20430;-47
2021/08/05 01:34:48;;;;;;;17.33;15.53;;;;;;;;;;5014497;28;20382;-46
2021/08/05 01:37:15;;;;;;;23.10;19.00;;;;;;;;;;5014473;28;20462;-46
2021/08/05 01:39:42;;;;;;;22.83;18.27;;;;;;;;;;5014281;28;20925;-47
2021/08/05 01:42:08;;;;;;;21.10;18.70;;;;;;;;;;5014489;28;20388;-48
2021/08/05 01:44:35;;;;;;;19.87;16.60;;;;;;;;;;5014501;28;20385;-47
2021/08/05 01:47:01;;;;;;;23.73;17.53;;;;;;;;;;5014212;28;20425;-48
2021/08/05 01:49:27;;;;;;;21.93;17.00;;;;;;;;;;5014306;28;20489;-47
2021/08/05 01:51:53;;;;;;;21.30;16.67;;;;;;;;;;5013911;28;20512;-46
2021/08/05 01:54:20;;;;;;;19.10;16.10;;;;;;;;;;5014304;28;20858;-47
2021/08/05 01:56:46;;;;;;;19.13;15.33;;;;;;;;;;5013905;28;20410;-46
2021/08/05 01:59:13;;;;;;;178.67;51.43;;;;;;;;;;5014220;28;20406;-47
2021/08/05 02:01:38;;;;;;;18.70;15.50;;;;;;;;;;5013840;28;20486;-47
2021/08/05 02:04:20;;;;;;;21.93;15.13;;;;;;;;;;5014028;28;20494;-48
2021/08/05 02:06:54;;;;;;;28.93;21.97;;;;;;;;;;5013862;28;20414;-46
2021/08/05 02:09:32;;;;;;;156.23;23.03;;;;;;;;;;5013994;28;20424;-46
2021/08/05 02:11:58;;;;;;;54.90;18.33;;;;;;;;;;5013728;28;20433;-47
2021/08/05 02:14:25;;;;;;;19.87;15.57;;;;;;;;;;5013851;28;20406;-47
2021/08/05 02:16:51;;;;;;;19.97;14.63;;;;;;;;;;5013649;28;20400;-48
2021/08/05 02:19:17;;;;;;;57.03;19.23;;;;;;;;;;5013750;28;20898;-46
2021/08/05 02:21:44;;;;;;;26.60;18.87;;;;;;;;;;5013598;28;20378;-47
2021/08/05 02:24:11;;;;;;;63.60;21.63;;;;;;;;;;5013776;28;20914;-46
2021/08/05 02:26:37;;;;;;;47.10;17.43;;;;;;;;;;5013521;28;20382;-47
2021/08/05 02:29:04;;;;;;;82.80;31.13;;;;;;;;;;5013530;28;20877;-46
2021/08/05 02:31:30;;;;;;;20.13;16.20;;;;;;;;;;5012980;28;20484;-46
2021/08/05 02:33:58;;;;;;;17.27;15.50;;;;;;;;;;5013382;28;20400;-46
2021/08/05 02:36:24;;;;;;;18.23;14.57;;;;;;;;;;5013473;28;20374;-46
2021/08/05 02:38:50;;;;;;;19.03;13.93;;;;;;;;;;5013342;28;20439;-46
2021/08/05 02:41:17;;;;;;;17.03;14.60;;;;;;;;;;5013276;28;20386;-46
2021/08/05 02:43:43;;;;;;;17.10;14.30;;;;;;;;;;5013190;28;20477;-46
2021/08/05 02:46:10;;;;;;;62.07;16.30;;;;;;;;;;5013239;28;20465;-46
2021/08/05 02:48:37;;;;;;;19.40;14.17;;;;;;;;;;5013090;28;20415;-46
2021/08/05 02:51:03;;;;;;;68.63;19.00;;;;;;;;;;5013059;28;20841;-46
2021/08/05 02:53:29;;;;;;;19.50;16.13;;;;;;;;;;5013212;28;20413;-46
2021/08/05 02:55:55;;;;;;;57.97;18.20;;;;;;;;;;5013035;28;20412;-47
2021/08/05 02:58:21;;;;;;;16.57;14.50;;;;;;;;;;5013120;28;20394;-46
2021/08/05 03:00:47;;;;;;;50.00;16.90;;;;;;;;;;5012985;28;20563;-46
2021/08/05 03:03:13;;;;;;;16.50;14.47;;;;;;;;;;5012947;28;20878;-46
2021/08/05 03:05:40;;;;;;;20.33;15.70;;;;;;;;;;5012828;28;20920;-46
2021/08/05 03:08:07;;;;;;;15.00;13.50;;;;;;;;;;5012743;28;20736;-47
2021/08/05 03:10:33;;;;;;;60.63;16.50;;;;;;;;;;5012437;28;20970;-47
2021/08/05 03:12:59;;;;;;;14.10;12.70;;;;;;;;;;5012820;28;20421;-46
2021/08/05 03:15:25;;;;;;;15.60;13.80;;;;;;;;;;5012701;28;20405;-46
2021/08/05 03:17:51;;;;;;;21.20;16.30;;;;;;;;;;5012558;28;20929;-46
2021/08/05 03:20:17;;;;;;;39.27;14.10;;;;;;;;;;5012482;28;20419;-46
2021/08/05 03:22:44;;;;;;;22.43;16.00;;;;;;;;;;5012671;28;20402;-46
2021/08/05 03:25:11;;;;;;;49.07;25.80;;;;;;;;;;5012510;28;20403;-46
2021/08/05 03:27:37;;;;;;;22.40;17.07;;;;;;;;;;5012651;28;20493;-47
2021/08/05 03:30:04;;;;;;;58.90;19.90;;;;;;;;;;5012355;28;20890;-47
2021/08/05 03:32:29;;;;;;;39.30;19.80;;;;;;;;;;5012237;28;20492;-46
2021/08/05 03:34:55;;;;;;;16.03;14.10;;;;;;;;;;5012436;28;20916;-46
2021/08/05 03:37:21;;;;;;;18.17;16.33;;;;;;;;;;5012053;28;20933;-47
2021/08/05 03:39:47;;;;;;;18.17;14.93;;;;;;;;;;5012125;28;20874;-46
2021/08/05 03:42:13;;;;;;;62.77;19.20;;;;;;;;;;5011387;28;20440;-46
2021/08/05 03:44:39;;;;;;;27.43;23.40;;;;;;;;;;5012218;28;20386;-47
2021/08/05 03:47:05;;;;;;;22.57;19.63;;;;;;;;;;5011977;28;20401;-47
2021/08/05 03:49:31;;;;;;;27.03;15.97;;;;;;;;;;5012091;28;20891;-47
2021/08/05 03:51:57;;;;;;;27.83;16.93;;;;;;;;;;5011714;28;20443;-46
2021/08/05 03:54:23;;;;;;;70.20;37.77;;;;;;;;;;5012013;28;20396;-47
2021/08/05 03:56:49;;;;;;;17.50;15.73;;;;;;;;;;5011659;28;20430;-47
2021/08/05 03:59:15;;;;;;;18.73;13.93;;;;;;;;;;5012008;28;20784;-47
2021/08/05 04:01:41;;;;;;;19.73;15.00;;;;;;;;;;5011708;28;20392;-46
2021/08/05 04:04:07;;;;;;;22.27;17.17;;;;;;;;;;5011781;28;20411;-47
2021/08/05 04:06:33;;;;;;;37.23;15.93;;;;;;;;;;5011655;28;20490;-47
2021/08/05 04:08:59;;;;;;;20.50;15.57;;;;;;;;;;5011581;28;20382;-47
2021/08/05 04:11:25;;;;;;;28.23;19.63;;;;;;;;;;5011564;28;20453;-47
2021/08/05 04:13:51;;;;;;;23.80;21.40;;;;;;;;;;5011692;28;20877;-46
2021/08/05 04:16:17;;;;;;;23.87;17.90;;;;;;;;;;5011762;28;20382;-46
2021/08/05 04:18:43;;;;;;;19.97;14.93;;;;;;;;;;5011365;28;20974;-46
2021/08/05 04:21:08;;;;;;;23.73;15.10;;;;;;;;;;5011389;28;20414;-46
2021/08/05 04:23:35;;;;;;;17.37;15.57;;;;;;;;;;5011422;28;20399;-46
2021/08/05 04:26:01;;;;;;;22.70;17.97;;;;;;;;;;5011634;28;20381;-46
2021/08/05 04:28:27;;;;;;;19.90;15.90;;;;;;;;;;5011584;28;20397;-46
2021/08/05 04:30:53;;;;;;;17.93;16.03;;;;;;;;;;5011423;28;20432;-46
2021/08/05 04:33:19;;;;;;;44.07;18.77;;;;;;;;;;5011778;28;20914;-46
2021/08/05 04:35:45;;;;;;;19.80;17.53;;;;;;;;;;5011676;28;20482;-46
2021/08/05 04:38:14;;;;;;;20.60;16.97;;;;;;;;;;5011239;28;20492;-46
2021/08/05 04:40:40;;;;;;;61.97;18.00;;;;;;;;;;5011350;28;20410;-46
2021/08/05 04:43:07;;;;;;;18.93;16.90;;;;;;;;;;5011398;28;20403;-48
2021/08/05 04:45:32;;;;;;;21.40;16.47;;;;;;;;;;5011219;28;20439;-47
2021/08/05 04:48:05;;;;;;;19.97;15.80;;;;;;;;;;5011031;28;20469;-48
2021/08/05 04:50:33;;;;;;;22.83;17.20;;;;;;;;;;5010590;28;20542;-46
2021/08/05 04:52:59;;;;;;;71.43;18.87;;;;;;;;;;5011064;28;20389;-48
2021/08/05 04:55:25;;;;;;;18.17;15.07;;;;;;;;;;5011200;28;20445;-46
2021/08/05 04:57:53;;;;;;;22.70;16.03;;;;;;;;;;5011005;28;20439;-47
2021/08/05 05:00:21;;;;;;;20.70;16.63;;;;;;;;;;5010888;28;20369;-47
2021/08/05 05:02:48;;;;;;;18.17;16.17;;;;;;;;;;5011048;28;20934;-46
2021/08/05 05:05:14;;;;;;;17.93;16.00;;;;;;;;;;5010874;28;20483;-46
2021/08/05 05:07:40;;;;;;;21.33;17.20;;;;;;;;;;5010844;28;20501;-47
2021/08/05 05:10:06;;;;;;;26.93;20.50;;;;;;;;;;5010721;28;20956;-48
2021/08/05 05:12:32;;;;;;;18.47;16.53;;;;;;;;;;5010707;28;20451;-47
2021/08/05 05:14:58;;;;;;;40.07;20.10;;;;;;;;;;5010911;28;20753;-46
2021/08/05 05:17:24;;;;;;;18.30;15.47;;;;;;;;;;5010633;28;20455;-47
2021/08/05 05:19:50;;;;;;;16.00;14.13;;;;;;;;;;5010603;28;20415;-47
2021/08/05 05:22:16;;;;;;;16.90;14.77;;;;;;;;;;5010771;28;20386;-46
2021/08/05 05:24:42;;;;;;;17.43;15.10;;;;;;;;;;5010786;28;20415;-47
2021/08/05 05:27:07;;;;;;;16.17;13.77;;;;;;;;;;5010619;28;20402;-47
2021/08/05 05:29:36;;;;;;;16.53;14.83;;;;;;;;;;5010649;28;20415;-46
2021/08/05 05:32:02;;;;;;;19.77;17.77;;;;;;;;;;5010535;28;20437;-46
2021/08/05 05:34:28;;;;;;;17.87;15.97;;;;;;;;;;5010661;28;20440;-47
2021/08/05 05:36:54;;;;;;;20.70;16.93;;;;;;;;;;5010255;28;20503;-46
2021/08/05 05:39:20;;;;;;;46.40;35.60;;;;;;;;;;5010478;28;20388;-46
2021/08/05 05:41:46;;;;;;;22.87;20.40;;;;;;;;;;5010514;28;20423;-47
2021/08/05 05:44:12;;;;;;;23.30;18.07;;;;;;;;;;5010522;28;20411;-47
2021/08/05 05:46:38;;;;;;;21.80;19.27;;;;;;;;;;5010415;28;20436;-48
2021/08/05 05:49:04;;;;;;;38.10;31.17;;;;;;;;;;5010492;28;20393;-47
2021/08/05 05:51:30;;;;;;;22.87;20.00;;;;;;;;;;5010281;28;20451;-48
2021/08/05 05:53:56;;;;;;;23.20;20.57;;;;;;;;;;5010533;28;20483;-47
2021/08/05 05:56:22;;;;;;;27.17;20.70;;;;;;;;;;5010390;28;20399;-47
2021/08/05 05:58:48;;;;;;;26.87;21.97;;;;;;;;;;5010446;28;20381;-47
2021/08/05 06:01:14;;;;;;;27.77;22.23;;;;;;;;;;5010282;28;20412;-46
2021/08/05 06:03:39;;;;;;;70.30;35.63;;;;;;;;;;5010276;28;20412;-46
2021/08/05 06:06:05;;;;;;;28.40;23.13;;;;;;;;;;5013116;28;20409;-46
2021/08/05 06:08:31;;;;;;;51.13;27.40;;;;;;;;;;5013865;28;20429;-46
2021/08/05 06:10:57;;;;;;;29.63;25.07;;;;;;;;;;5013831;28;20451;-46
2021/08/05 06:13:23;;;;;;;67.53;29.40;;;;;;;;;;5014110;28;20381;-46
2021/08/05 06:15:49;;;;;;;38.53;29.50;;;;;;;;;;5013872;28;20383;-46
2021/08/05 06:18:15;;;;;;;22.20;19.20;;;;;;;;;;5013794;28;20473;-46
2021/08/05 06:20:41;;;;;;;29.53;21.70;;;;;;;;;;5013839;28;20411;-47
2021/08/05 06:23:08;;;;;;;24.37;21.20;;;;;;;;;;5014190;28;20401;-47
2021/08/05 06:25:35;;;;;;;24.03;19.30;;;;;;;;;;5013911;28;20388;-46
2021/08/05 06:28:01;;;;;;;22.37;19.37;;;;;;;;;;5013928;28;20406;-47
2021/08/05 06:30:27;;;;;;;25.77;20.37;;;;;;;;;;5013710;28;20733;-46
2021/08/05 06:32:53;;;;;;;24.90;19.80;;;;;;;;;;5013559;28;20449;-47
2021/08/05 06:35:20;;;;;;;25.10;20.63;;;;;;;;;;5013631;28;20464;-48
2021/08/05 06:37:46;;;;;;;24.33;19.10;;;;;;;;;;5013968;28;20416;-47
2021/08/05 06:40:12;;;;;;;22.60;19.50;;;;;;;;;;5013289;28;20414;-47
2021/08/05 06:42:38;;;;;;;24.30;21.27;;;;;;;;;;5013445;28;20752;-47
2021/08/05 06:45:05;;;;;;;25.23;20.13;;;;;;;;;;5013172;28;20395;-47
2021/08/05 06:47:31;;;;;;;21.63;19.27;;;;;;;;;;5013144;28;20429;-47
2021/08/05 06:49:58;;;;;;;24.27;20.87;;;;;;;;;;5013325;28;20468;-47
2021/08/05 06:52:23;;;;;;;22.53;19.37;;;;;;;;;;5013223;28;20549;-47
2021/08/05 06:54:49;;;;;;;26.70;21.17;;;;;;;;;;5013206;28;20438;-47
2021/08/05 06:57:16;;;;;;;24.50;21.50;;;;;;;;;;5012993;28;20423;-47
2021/08/05 06:59:42;;;;;;;29.20;21.63;;;;;;;;;;5012851;28;20432;-47
2021/08/05 07:02:09;;;;;;;22.13;19.70;;;;;;;;;;5012941;28;20411;-47
2021/08/05 07:04:35;;;;;;;26.90;21.63;;;;;;;;;;5012917;28;20414;-47
2021/08/05 07:07:01;;;;;;;27.70;22.70;;;;;;;;;;5012608;28;20512;-47
2021/08/05 07:09:27;;;;;;;25.03;22.37;;;;;;;;;;5012305;28;20403;-47
2021/08/05 07:11:53;;;;;;;31.57;22.17;;;;;;;;;;5011748;28;20886;-46
2021/08/05 07:14:19;;;;;;;29.90;23.70;;;;;;;;;;5012200;28;20411;-47
2021/08/05 07:16:45;;;;;;;28.50;21.87;;;;;;;;;;5010814;28;20469;-47
2021/08/05 07:19:11;;;;;;;24.47;21.13;;;;;;;;;;5012069;28;20771;-47
2021/08/05 07:21:37;;;;;;;25.00;20.97;;;;;;;;;;5011893;28;20453;-47
2021/08/05 07:24:03;;;;;;;23.43;20.93;;;;;;;;;;5011834;28;20434;-47
2021/08/05 07:26:29;;;;;;;32.30;22.33;;;;;;;;;;5012339;28;20404;-47
2021/08/05 07:28:55;;;;;;;21.37;19.07;;;;;;;;;;5012252;28;20755;-47
2021/08/05 07:31:21;;;;;;;21.80;19.00;;;;;;;;;;5012201;28;20992;-47
2021/08/05 07:33:49;;;;;;;21.00;18.70;;;;;;;;;;5012289;28;20407;-47
2021/08/05 07:36:16;;;;;;;22.43;17.80;;;;;;;;;;5012390;28;20408;-47
2021/08/05 07:38:42;;;;;;;17.30;15.50;;;;;;;;;;5012412;28;20470;-47
2021/08/05 07:41:08;;;;;;;16.90;15.17;;;;;;;;;;5012138;28;20491;-47
2021/08/05 07:43:34;;;;;;;18.17;16.37;;;;;;;;;;5012040;28;20401;-47
2021/08/05 07:46:00;;;;;;;20.93;18.70;;;;;;;;;;5012178;28;20411;-47
2021/08/05 07:48:26;;;;;;;24.90;21.10;;;;;;;;;;5012181;28;20455;-47
2021/08/05 07:50:52;;;;;;;31.20;25.20;;;;;;;;;;5011823;28;20807;-47
2021/08/05 07:53:18;;;;;;;21.83;19.23;;;;;;;;;;5012080;28;20441;-47
2021/08/05 07:55:44;;;;;;;22.40;19.40;;;;;;;;;;5012050;28;20464;-47
2021/08/05 07:58:10;;;;;;;27.77;23.60;;;;;;;;;;5011773;28;21011;-47
2021/08/05 08:00:36;;;;;;;20.83;18.60;;;;;;;;;;5011810;28;20894;-47
2021/08/05 08:03:02;;;;;;;18.10;16.20;;;;;;;;;;5011997;28;20400;-47
2021/08/05 08:05:29;;;;;;;24.57;20.33;;;;;;;;;;5011811;28;20430;-47
2021/08/05 08:07:55;;;;;;;20.37;18.17;;;;;;;;;;5011770;28;20423;-47
2021/08/05 08:10:21;;;;;;;26.63;23.60;;;;;;;;;;5011700;28;21061;-47
2021/08/05 08:12:47;;;;;;;29.80;26.03;;;;;;;;;;5011667;28;20533;-47
2021/08/05 08:15:14;;;;;;;21.93;19.73;;;;;;;;;;5011639;28;20743;-48
2021/08/05 08:17:40;;;;;;;22.00;19.80;;;;;;;;;;5011752;28;20419;-47
2021/08/05 08:20:07;;;;;;;18.00;16.30;;;;;;;;;;5011503;28;20414;-48
2021/08/05 08:22:33;;;;;;;19.27;17.47;;;;;;;;;;5011668;28;20530;-48
2021/08/05 08:24:59;;;;;;;19.33;17.33;;;;;;;;;;5017186;28;20422;-49
2021/08/05 08:27:25;;;;;;;17.10;14.33;;;;;;;;;;5010955;28;20969;-48
2021/08/05 08:29:51;;;;;;;21.27;17.90;;;;;;;;;;5011398;28;20399;-48
2021/08/05 08:32:17;;;;;;;18.00;16.03;;;;;;;;;;5011300;28;20961;-47
2021/08/05 08:34:43;;;;;;;17.17;15.33;;;;;;;;;;5011536;28;20403;-48
2021/08/05 08:37:09;;;;;;;16.30;13.57;;;;;;;;;;5010988;28;20493;-48
2021/08/05 08:39:35;;;;;;;17.23;15.60;;;;;;;;;;5011292;28;20486;-48
2021/08/05 08:42:01;;;;;;;17.43;15.87;;;;;;;;;;5010931;28;20421;-48
2021/08/05 08:44:27;;;;;;;19.93;17.60;;;;;;;;;;5011358;28;20395;-48
2021/08/05 08:46:55;;;;;;;15.77;14.27;;;;;;;;;;5011132;28;20423;-48
2021/08/05 08:49:24;;;;;;;15.93;14.43;;;;;;;;;;5011159;28;20407;-48
2021/08/05 08:51:50;;;;;;;12.33;11.10;;;;;;;;;;5010927;28;20450;-48
2021/08/05 08:54:16;;;;;;;15.83;14.37;;;;;;;;;;5016565;28;20418;-48
2021/08/05 08:56:44;;;;;;;11.23;10.23;;;;;;;;;;5010884;28;20457;-48
2021/08/05 08:59:11;;;;;;;14.70;13.10;;;;;;;;;;5010945;28;20540;-48
2021/08/05 09:01:41;;;;;;;12.67;11.47;;;;;;;;;;5010908;28;20415;-48
2021/08/05 09:04:07;;;;;;;10.67;9.57;;;;;;;;;;5010772;28;20403;-48
2021/08/05 09:06:34;;;;;;;9.60;8.70;;;;;;;;;;5010887;28;20411;-47
2021/08/05 09:09:00;;;;;;;8.97;8.03;;;;;;;;;;5010755;28;20438;-48
2021/08/05 09:11:26;;;;;;;11.30;10.30;;;;;;;;;;5010906;28;20458;-47
2021/08/05 09:13:52;;;;;;;13.70;12.33;;;;;;;;;;5009738;28;20419;-47
2021/08/05 09:16:21;;;;;;;12.80;11.53;;;;;;;;;;5015670;28;20506;-48
2021/08/05 09:18:47;;;;;;;13.57;12.40;;;;;;;;;;5004624;28;20423;-48
2021/08/05 09:21:18;;;;;;;12.80;11.70;;;;;;;;;;5009192;28;20423;-47
2021/08/05 09:24:01;;;;;;;12.27;11.13;;;;;;;;;;5010875;28;20899;-47
2021/08/05 09:26:34;;;;;;;14.17;13.00;;;;;;;;;;5010494;28;20906;-48
2021/08/05 09:29:06;;;;;;;13.23;11.93;;;;;;;;;;5015967;28;20419;-48
2021/08/05 09:31:33;;;;;;;10.77;9.67;;;;;;;;;;5010328;28;20487;-48
2021/08/05 09:34:03;;;;;;;12.57;11.37;;;;;;;;;;5010609;28;20411;-48
2021/08/05 09:36:29;;;;;;;11.80;10.80;;;;;;;;;;5010593;28;20403;-48
2021/08/05 09:38:55;;;;;;;13.20;11.90;;;;;;;;;;5010870;28;20954;-47
2021/08/05 09:41:21;;;;;;;15.63;14.03;;;;;;;;;;5000596;28;20415;-47
2021/08/05 09:43:47;;;;;;;12.97;10.87;;;;;;;;;;4994872;28;20470;-47
2021/08/05 09:46:13;;;;;;;15.20;13.63;;;;;;;;;;4994809;28;20416;-47
2021/08/05 09:48:43;;;;;;;18.13;16.30;;;;;;;;;;5009301;28;20497;-47
2021/08/05 09:51:14;;;;;;;20.20;16.73;;;;;;;;;;4996505;28;20450;-47
2021/08/05 09:54:00;;;;;;;17.63;16.03;;;;;;;;;;5019748;28;20489;-47
2021/08/05 09:56:27;;;;;;;20.40;18.57;;;;;;;;;;5015951;28;20437;-47
2021/08/05 09:58:53;;;;;;;12.93;11.63;;;;;;;;;;5015155;28;20415;-47
2021/08/05 10:01:19;;;;;;;12.40;11.07;;;;;;;;;;5013933;28;20441;-47
2021/08/05 10:03:45;;;;;;;20.70;11.30;;;;;;;;;;5014018;28;20910;-48
2021/08/05 10:06:11;;;;;;;16.30;14.60;;;;;;;;;;5018918;28;20501;-47
2021/08/05 10:08:39;;;;;;;17.30;13.53;;;;;;;;;;5013402;28;20517;-47
2021/08/05 10:11:06;;;;;;;12.43;11.13;;;;;;;;;;5012863;28;20458;-47
2021/08/05 10:13:34;;;;;;;11.67;10.53;;;;;;;;;;5013933;28;20422;-48
2021/08/05 10:16:01;;;;;;;19.10;17.30;;;;;;;;;;5014072;28;20399;-47
2021/08/05 10:18:31;;;;;;;14.97;13.63;;;;;;;;;;5013420;28;20417;-47
2021/08/05 10:21:00;;;;;;;11.20;10.17;;;;;;;;;;5013787;28;20407;-48
2021/08/05 10:23:28;;;;;;;9.27;8.37;;;;;;;;;;5013600;28;20398;-47
2021/08/05 10:25:58;;;;;;;17.63;16.00;;;;;;;;;;5012225;28;20396;-47
2021/08/05 10:28:25;;;;;;;15.77;14.40;;;;;;;;;;5013364;28;20430;-47
2021/08/05 10:30:52;;;;;;;17.63;16.03;;;;;;;;;;5012770;28;20511;-47
2021/08/05 10:33:18;;;;;;;17.33;15.83;;;;;;;;;;5012352;28;20411;-48
2021/08/05 10:35:48;;;;;;;15.93;14.50;;;;;;;;;;5012995;28;20403;-47
2021/08/05 10:38:18;;;;;;;16.83;15.37;;;;;;;;;;5012911;28;20439;-47
2021/08/05 10:40:44;;;;;;;16.40;15.00;;;;;;;;;;5013110;28;20411;-47
2021/08/05 10:43:11;;;;;;;16.90;15.10;;;;;;;;;;5013606;28;20413;-47
2021/08/05 10:45:38;;;;;;;15.37;13.87;;;;;;;;;;5013364;28;20469;-47
2021/08/05 10:48:06;;;;;;;13.93;12.53;;;;;;;;;;5013161;28;20868;-48
2021/08/05 10:50:37;;;;;;;15.33;13.93;;;;;;;;;;5012787;28;20417;-48
2021/08/05 10:53:03;;;;;;;12.10;11.03;;;;;;;;;;5012922;28;20516;-47
2021/08/05 10:55:34;;;;;;;11.97;10.70;;;;;;;;;;5013152;28;20800;-47
2021/08/05 10:58:20;;;;;;;15.77;14.30;;;;;;;;;;5012881;28;20482;-47
2021/08/05 11:00:49;;;;;;;15.60;14.13;;;;;;;;;;5012866;28;20954;-47
2021/08/05 11:03:36;;;;;;;12.50;11.20;;;;;;;;;;5012961;28;20410;-47
2021/08/05 11:06:04;;;;;;;11.50;10.50;;;;;;;;;;5013260;28;20402;-47
2021/08/05 11:08:30;;;;;;;14.60;13.40;;;;;;;;;;5012592;28;20419;-47
2021/08/05 11:11:20;;;;;;;12.20;11.10;;;;;;;;;;5012679;28;20472;-48
2021/08/05 11:13:51;;;;;;;14.53;13.13;;;;;;;;;;5002622;28;20939;-47
2021/08/05 11:16:17;;;;;;;17.97;15.60;;;;;;;;;;5012760;28;20516;-48
2021/08/05 11:18:43;;;;;;;19.90;16.90;;;;;;;;;;5012660;28;21108;-47
2021/08/05 11:21:12;;;;;;;18.40;16.37;;;;;;;;;;5012470;28;20757;-46
2021/08/05 11:23:39;;;;;;;16.70;15.00;;;;;;;;;;5012536;28;20405;-47
2021/08/05 11:26:06;;;;;;;12.70;11.60;;;;;;;;;;5012603;28;20403;-47
2021/08/05 11:28:34;;;;;;;9.27;8.37;;;;;;;;;;5012441;28;20458;-48
2021/08/05 11:31:00;;;;;;;9.57;8.60;;;;;;;;;;5012306;28;20443;-48
2021/08/05 11:33:52;;;;;;;8.50;7.10;;;;;;;;;;5012858;28;20516;-50
2021/08/05 11:39:02;;;;;;;7.43;6.83;;;;;;;;;;5012391;28;20450;-48
2021/08/05 11:41:45;;;;;;;7.17;6.67;;;;;;;;;;5012256;28;20414;-48
2021/08/05 11:44:30;;;;;;;7.80;7.10;;;;;;;;;;5012568;28;20409;-48
2021/08/05 11:47:14;;;;;;;9.33;8.63;;;;;;;;;;5012531;28;20427;-49
2021/08/05 11:49:48;;;;;;;7.53;6.53;;;;;;;;;;5012013;28;20399;-47
2021/08/05 11:52:14;;;;;;;6.27;5.87;;;;;;;;;;5012285;28;20450;-48
2021/08/05 11:54:42;;;;;;;6.63;6.03;;;;;;;;;;5012244;28;20410;-48
2021/08/05 11:57:09;;;;;;;5.20;4.90;;;;;;;;;;5011941;28;20488;-48
2021/08/05 11:59:39;;;;;;;6.90;6.40;;;;;;;;;;5012181;28;20435;-48
2021/08/05 12:02:07;;;;;;;7.63;7.03;;;;;;;;;;5011578;28;20486;-49
2021/08/05 12:04:33;;;;;;;5.77;5.27;;;;;;;;;;5011975;28;20411;-49
2021/08/05 12:07:17;;;;;;;5.07;4.77;;;;;;;;;;5011716;28;20437;-49
2021/08/05 12:09:45;;;;;;;4.60;4.30;;;;;;;;;;5011514;28;20445;-50
2021/08/05 12:12:11;;;;;;;3.67;3.37;;;;;;;;;;5011580;28;20450;-49
2021/08/05 12:14:37;;;;;;;3.80;3.50;;;;;;;;;;5012608;28;20441;-48
2021/08/05 12:17:03;;;;;;;5.63;5.13;;;;;;;;;;5011407;28;20780;-49
2021/08/05 12:19:31;;;;;;;6.60;4.10;;;;;;;;;;5011647;28;20891;-49
2021/08/05 12:21:57;;;;;;;5.90;5.37;;;;;;;;;;5016456;28;20419;-48
2021/08/05 12:24:25;;;;;;;6.90;5.40;;;;;;;;;;5005110;28;20414;-49
2021/08/05 12:27:01;;;;;;;6.20;5.77;;;;;;;;;;5011321;28;20923;-47
2021/08/05 12:29:27;;;;;;;8.77;7.97;;;;;;;;;;5011087;28;20513;-47
2021/08/05 12:31:53;;;;;;;7.60;6.90;;;;;;;;;;5010200;28;20570;-47
2021/08/05 12:34:19;;;;;;;10.20;6.90;;;;;;;;;;5010674;28;20404;-47
2021/08/05 12:36:45;;;;;;;8.10;7.50;;;;;;;;;;5010649;28;20522;-48
2021/08/05 12:39:11;;;;;;;8.63;7.87;;;;;;;;;;5011372;28;20768;-46
2021/08/05 12:41:40;;;;;;;8.70;8.00;;;;;;;;;;5011027;28;20925;-46
2021/08/05 12:44:06;;;;;;;9.33;8.20;;;;;;;;;;5011110;28;20898;-46
2021/08/05 12:46:33;;;;;;;8.70;7.90;;;;;;;;;;5011144;28;20410;-46
2021/08/05 12:48:59;;;;;;;9.50;8.80;;;;;;;;;;5010988;28;20417;-46
2021/08/05 12:51:26;;;;;;;9.50;8.60;;;;;;;;;;5010882;28;20448;-47
2021/08/05 12:53:52;;;;;;;9.07;8.37;;;;;;;;;;5010798;28;20412;-46
2021/08/05 12:56:38;;;;;;;11.10;8.20;;;;;;;;;;5011074;28;20408;-46
2021/08/05 12:59:04;;;;;;;8.50;7.70;;;;;;;;;;5010982;28;20804;-47
2021/08/05 13:01:31;;;;;;;10.00;7.93;;;;;;;;;;5010938;28;20925;-47
2021/08/05 13:03:59;;;;;;;8.47;7.77;;;;;;;;;;5010947;28;20419;-46
2021/08/05 13:06:25;;;;;;;7.93;7.20;;;;;;;;;;5010664;28;20406;-46
2021/08/05 13:08:52;;;;;;;7.83;7.10;;;;;;;;;;5010874;28;20407;-46
2021/08/05 13:11:34;;;;;;;5.97;5.57;;;;;;;;;;5010708;28;20450;-47
2021/08/05 13:14:00;;;;;;;8.27;6.80;;;;;;;;;;5011977;28;20891;-49
2021/08/05 13:16:46;;;;;;;5.53;5.03;;;;;;;;;;5015153;28;20399;-47
2021/08/05 13:19:16;;;;;;;5.00;4.70;;;;;;;;;;5014955;28;20441;-48
2021/08/05 13:21:45;;;;;;;4.60;4.17;;;;;;;;;;5013278;28;20419;-47
2021/08/05 13:24:21;;;;;;;3.77;3.57;;;;;;;;;;5013899;28;20418;-47
2021/08/05 13:26:48;;;;;;;3.70;3.50;;;;;;;;;;5014569;28;20422;-46
2021/08/05 13:29:37;;;;;;;3.87;3.53;;;;;;;;;;5014667;28;20888;-48
2021/08/05 13:32:04;;;;;;;3.70;3.50;;;;;;;;;;5014912;28;20489;-47
2021/08/05 13:34:30;;;;;;;3.90;3.70;;;;;;;;;;5014685;28;20806;-46
2021/08/05 13:36:56;;;;;;;3.87;3.67;;;;;;;;;;5014441;28;20485;-46
2021/08/05 13:39:40;;;;;;;4.53;4.23;;;;;;;;;;5014575;28;20410;-46
2021/08/05 13:42:06;;;;;;;5.27;4.50;;;;;;;;;;5014392;28;20526;-46
2021/08/05 13:44:32;;;;;;;6.00;4.97;;;;;;;;;;5014399;28;20872;-46
2021/08/05 13:46:58;;;;;;;4.77;4.50;;;;;;;;;;5014450;28;20498;-46
2021/08/05 13:49:24;;;;;;;5.17;4.87;;;;;;;;;;5014692;28;20172;-46
2021/08/05 13:51:52;;;;;;;4.83;4.53;;;;;;;;;;5014460;28;20200;-47
2021/08/05 13:54:18;;;;;;;5.00;4.70;;;;;;;;;;5014854;28;20537;-46
2021/08/05 13:56:44;;;;;;;5.20;4.80;;;;;;;;;;5014099;28;20434;-47
2021/08/05 13:59:10;;;;;;;4.80;4.50;;;;;;;;;;5014393;28;20757;-46
2021/08/05 14:01:36;;;;;;;4.63;4.10;;;;;;;;;;5014149;28;20403;-47
2021/08/05 14:04:03;;;;;;;4.80;4.20;;;;;;;;;;5013938;28;20449;-47
2021/08/05 14:06:28;;;;;;;4.10;3.90;;;;;;;;;;5013763;28;20785;-46
2021/08/05 14:08:54;;;;;;;4.60;4.30;;;;;;;;;;5013762;28;20911;-47
2021/08/05 14:11:20;;;;;;;5.43;3.70;;;;;;;;;;5012669;28;20582;-47
2021/08/05 14:13:46;;;;;;;4.50;4.20;;;;;;;;;;5013913;28;20173;-48
2021/08/05 14:16:12;;;;;;;3.87;3.67;;;;;;;;;;5013946;28;20399;-49
2021/08/05 14:18:39;;;;;;;5.90;4.00;;;;;;;;;;5013597;28;20454;-48
2021/08/05 14:21:05;;;;;;;4.47;4.03;;;;;;;;;;5013666;28;20490;-46
2021/08/05 14:23:31;;;;;;;4.30;4.00;;;;;;;;;;5013581;28;20876;-47
2021/08/05 14:25:57;;;;;;;4.77;4.47;;;;;;;;;;5012923;28;20520;-47
2021/08/05 14:28:23;;;;;;;4.07;3.87;;;;;;;;;;5013596;28;20458;-48